sensor_id;sensor_type;location;lat;lon;timestamp;temperature;humidity
55173;DHT22;41061;52.822;6.860;2024-03-07T11:57:11;6.40;99.90
55173;DHT22;41061;52.822;6.860;2024-03-07T12:02:13;6.30;99.90
55173;DHT22;41061;52.822;6.860;2024-03-07T12:04:44;6.30;99.90
55173;DHT22;41061;52.822;6.860;2024-03-07T12:07:10;6.10;99.90
55173;DHT22;41061;52.822;6.860;2024-03-07T12:09:39;6.00;99.90
55173;DHT22;41061;52.822;6.860;2024-03-07T12:12:06;5.90;99.90
55173;DHT22;41061;52.822;6.860;2024-03-07T12:14:32;5.90;99.90
55173;DHT22;41061;52.822;6.860;2024-03-07T12:17:02;6.00;99.90
55173;DHT22;41061;52.822;6.860;2024-03-07T12:19:31;5.90;99.90
55173;DHT22;41061;52.822;6.860;2024-03-07T12:22:03;5.80;99.90
55173;DHT22;41061;52.822;6.860;2024-03-07T12:24:29;5.80;99.90
55173;DHT22;41061;52.822;6.860;2024-03-07T12:56:48;6.40;99.90
55173;DHT22;41061;52.822;6.860;2024-03-07T13:01:43;6.60;99.90
55173;DHT22;41061;52.822;6.860;2024-03-07T13:04:13;6.40;99.90
55173;DHT22;41061;52.822;6.860;2024-03-07T13:06:39;6.30;99.90
55173;DHT22;41061;52.822;6.860;2024-03-07T13:09:10;6.40;99.90
55173;DHT22;41061;52.822;6.860;2024-03-07T13:11:38;6.40;99.90
55173;DHT22;41061;52.822;6.860;2024-03-07T13:14:07;6.40;99.90
55173;DHT22;41061;52.822;6.860;2024-03-07T13:16:33;6.30;99.90
55173;DHT22;41061;52.822;6.860;2024-03-07T13:26:21;6.50;99.90
55173;DHT22;41061;52.822;6.860;2024-03-07T13:28:53;6.40;99.90
55173;DHT22;41061;52.822;6.860;2024-03-07T13:31:19;6.60;99.90
55173;DHT22;41061;52.822;6.860;2024-03-07T13:33:45;6.50;99.90
55173;DHT22;41061;52.822;6.860;2024-03-07T13:36:12;6.50;99.90
55173;DHT22;41061;52.822;6.860;2024-03-07T13:38:40;6.60;99.90
55173;DHT22;41061;52.822;6.860;2024-03-07T15:33:00;7.20;99.90
55173;DHT22;41061;52.822;6.860;2024-03-07T15:35:26;6.90;99.90
55173;DHT22;41061;52.822;6.860;2024-03-07T15:37:52;6.80;99.90
55173;DHT22;41061;52.822;6.860;2024-03-07T15:42:48;6.90;99.90
55173;DHT22;41061;52.822;6.860;2024-03-07T16:05:24;6.80;99.90
55173;DHT22;41061;52.822;6.860;2024-03-07T16:27:38;6.60;99.90
55173;DHT22;41061;52.822;6.860;2024-03-07T16:30:09;6.40;99.90
55173;DHT22;41061;52.822;6.860;2024-03-07T16:32:37;6.50;99.90
55173;DHT22;41061;52.822;6.860;2024-03-07T16:35:03;6.50;99.90
55173;DHT22;41061;52.822;6.860;2024-03-07T16:37:38;6.30;99.90
55173;DHT22;41061;52.822;6.860;2024-03-07T16:40:15;6.30;99.90
55173;DHT22;41061;52.822;6.860;2024-03-07T16:45:10;6.00;99.90
55173;DHT22;41061;52.822;6.860;2024-03-07T16:55:11;6.20;99.90
55173;DHT22;41061;52.822;6.860;2024-03-07T16:57:40;6.10;99.90
55173;DHT22;41061;52.822;6.860;2024-03-07T17:00:08;5.90;99.90
55173;DHT22;41061;52.822;6.860;2024-03-07T17:02:36;5.90;99.90
55173;DHT22;41061;52.822;6.860;2024-03-07T17:05:04;5.90;99.90
55173;DHT22;41061;52.822;6.860;2024-03-07T17:07:32;5.80;99.90
